Waterbury, CT

5:05 PM EDT on March 31, 2015 (GMT -0400)
Overlook | | Change Station
CLOSE
Current Station
Personal Weather Station
Location: Waterbury, CT
Elevation: 577 ft
Nearby Weather Stations

Elev 577 ft 41.58 °N, 73.04 °W | Updated 2 seconds ago

Overcast
Overcast
36.9 °F
Feels Like 37 °F
N
2.0
Wind Variable Wind from West
Gusts 4.0 mph

Today
High -- | Low -- °F
--% Chance of Precip.
Yesterday
High -- | Low -- °F
Precip. -- in
6:37 AM 7:16 PM
Waxing Gibbous, 89% visible
Pressure 29.76 in
Visibility 2.0 miles
Clouds Overcast 700 ft
Windchill 37 °F
Dew Point 32 °F
Humidity 84%
Rainfall 0.00 in
Snow Depth Not available.
UV 1 out of 12
Pollen 7.00 out of 12
Air Quality Not available.
Flu Activity Not available.
METAR KOXC 312050Z 28004KT 2SM -SN BR OVC007 02/M03 A2976

More Conditions Fewer Conditions

Pressure 29.76 in
Visibility 2.0 miles
Clouds Overcast 700 ft
Windchill 37 °F
Dew Point 32 °F
Humidity 84%
Rainfall 0.00 in
Snow Depth Not available.
UV 1 out of 12
Pollen 7.00 out of 12
Air Quality Not available.
Flu Activity Not available.
METAR KOXC 312050Z 28004KT 2SM -SN BR OVC007 02/M03 A2976

More Conditions Fewer Conditions

10-Day Weather Forecast

Almanac

Astronomy

Mar. 31, 2015 Rise Set
Actual Time
Civil Twilight
Nautical Twilight
Astronomical Twilight
Moon
Length of Visible Light
Length of Day
Tomorrow will be .
, % of the Moon is Illuminated

Today's Extremes

State Highs State Lows

Community

WunderPhotos

Upload Photos

1,809,834 photos uploaded!

WunderBlogs® & News

Nearby

Air Quality

  Air Quality AQ Index Pollutant
Not available.

Snow Depth

Station Depth Elevation

Earthquake Activity

City Distance Mag. Time & Date
Minimum magnitude displayed is 2.5.

Coastal Water Temperatures

Place Temperature

Stations

Nearby Weather Stations

Station Location Temp. Windchill Dew Point Humidity Wind Precip. Elev Updated Type